Time;durP1;ratioP1;P1;durP2;ratioP2;P2;SDS_P1;SDS_P2;PMS_P1;PMS_P2;Temp;Humidity;BMP_temperature;BMP_pressure;BME280_temperature;BME280_humidity;BME280_pressure;Samples;Min_cycle;Max_cycle;Signal;HPM_P1;HPM_P2
2022/02/26 00:01:06;;;;;;;16.58;4.47;;;;;;;1.22;89.42;102127.63;5033595;28;20040;-76
2022/02/26 00:03:33;;;;;;;17.80;4.93;;;;;;;1.15;89.53;102124.00;5038803;28;20025;-76
2022/02/26 00:05:58;;;;;;;25.08;5.10;;;;;;;1.16;89.54;102120.19;5078475;28;20028;-76
2022/02/26 00:08:24;;;;;;;16.35;4.70;;;;;;;1.13;89.59;102121.44;5090687;28;20052;-76
2022/02/26 00:10:49;;;;;;;17.05;5.53;;;;;;;1.10;89.65;102117.19;5048219;28;20021;-76
2022/02/26 00:13:15;;;;;;;16.02;4.65;;;;;;;1.09;89.67;102117.41;5044021;28;20057;-76
2022/02/26 00:15:40;;;;;;;20.30;5.25;;;;;;;1.07;89.45;102111.25;5061674;28;20028;-76
2022/02/26 00:18:06;;;;;;;18.20;4.90;;;;;;;1.06;89.65;102118.63;5042829;28;20035;-76
2022/02/26 00:20:31;;;;;;;18.10;4.47;;;;;;;1.02;89.56;102106.34;5024793;28;20040;-76
2022/02/26 00:22:56;;;;;;;14.00;4.80;;;;;;;1.00;89.94;102113.91;5077824;28;20039;-76
2022/02/26 00:25:22;;;;;;;16.25;5.05;;;;;;;0.99;90.70;102119.56;5043572;28;20086;-76
2022/02/26 00:27:48;;;;;;;25.35;6.40;;;;;;;0.95;90.81;102113.66;5042650;28;20078;-76
2022/02/26 00:30:13;;;;;;;19.95;5.10;;;;;;;0.97;90.50;102117.03;5062811;28;20028;-76
2022/02/26 00:32:39;;;;;;;17.83;5.35;;;;;;;0.97;90.66;102119.75;5058835;28;20041;-76
2022/02/26 00:35:04;;;;;;;21.50;5.57;;;;;;;0.94;90.54;102111.09;5047323;28;20039;-76
2022/02/26 00:37:30;;;;;;;17.23;5.25;;;;;;;0.88;91.31;102112.72;5062352;28;20028;-76
2022/02/26 00:39:55;;;;;;;17.50;4.70;;;;;;;0.92;90.72;102111.31;5055574;28;20032;-76
2022/02/26 00:42:21;;;;;;;17.55;4.82;;;;;;;0.90;90.75;102116.09;5021846;28;20036;-76
2022/02/26 00:44:46;;;;;;;17.70;5.18;;;;;;;0.90;91.22;102118.84;5052147;28;20025;-76
2022/02/26 00:47:12;;;;;;;20.52;4.60;;;;;;;0.87;91.17;102113.75;5040785;28;20032;-76
2022/02/26 00:49:46;;;;;;;16.00;4.57;;;;;;;0.85;91.28;102110.34;5022325;28;20029;-76
2022/02/26 00:52:13;;;;;;;13.63;4.30;;;;;;;0.84;90.93;102125.09;5027964;28;20040;-76
2022/02/26 00:54:39;;;;;;;22.60;5.40;;;;;;;0.82;91.13;102116.22;5024499;28;20041;-76
2022/02/26 00:57:04;;;;;;;16.92;4.72;;;;;;;0.80;91.26;102118.28;5051552;28;20397;-76
2022/02/26 00:59:30;;;;;;;19.55;4.78;;;;;;;0.81;91.56;102111.78;5051977;28;20028;-76
2022/02/26 01:01:55;;;;;;;26.38;5.20;;;;;;;0.78;92.50;102106.66;5045920;28;20396;-76
2022/02/26 01:04:21;;;;;;;20.45;5.75;;;;;;;0.81;93.50;102112.63;5033013;28;20031;-76
2022/02/26 01:06:47;;;;;;;22.33;5.47;;;;;;;0.81;93.54;102109.06;5056974;28;20037;-76
2022/02/26 01:09:12;;;;;;;25.58;6.13;;;;;;;0.81;94.05;102107.16;5017108;28;20033;-76
2022/02/26 01:11:38;;;;;;;23.33;6.00;;;;;;;0.82;94.39;102106.09;5037993;28;20044;-76
2022/02/26 01:14:03;;;;;;;22.45;6.07;;;;;;;0.85;95.72;102107.63;5038857;28;20021;-76
2022/02/26 01:16:29;;;;;;;24.67;5.45;;;;;;;0.84;95.69;102098.56;5031861;28;20540;-76
2022/02/26 01:18:54;;;;;;;28.83;5.88;;;;;;;0.85;95.77;102092.03;5041512;28;20047;-76
2022/02/26 01:21:20;;;;;;;21.92;5.95;;;;;;;0.90;95.56;102099.69;5041493;28;20033;-76
2022/02/26 01:23:45;;;;;;;23.25;5.50;;;;;;;0.92;94.97;102092.16;5049730;28;20118;-76
2022/02/26 01:26:11;;;;;;;19.55;5.25;;;;;;;0.93;94.42;102088.38;5052808;28;20035;-75
2022/02/26 01:28:36;;;;;;;19.95;6.18;;;;;;;0.96;94.15;102089.88;5020772;28;20024;-76
2022/02/26 01:31:02;;;;;;;25.08;6.07;;;;;;;0.93;93.51;102088.38;5061648;28;20025;-76
2022/02/26 01:33:27;;;;;;;22.77;5.82;;;;;;;0.93;93.16;102093.00;5053445;28;20036;-75
2022/02/26 01:35:53;;;;;;;20.35;5.45;;;;;;;0.95;92.95;102085.41;5040925;28;20033;-76
2022/02/26 01:38:19;;;;;;;20.17;5.13;;;;;;;0.94;92.87;102081.84;5043108;28;20028;-76
2022/02/26 01:40:44;;;;;;;22.05;5.43;;;;;;;0.92;92.77;102081.22;5032739;28;20067;-76
2022/02/26 01:43:10;;;;;;;21.50;6.28;;;;;;;0.92;92.35;102083.94;5043221;28;20036;-76
2022/02/26 01:45:35;;;;;;;17.70;4.93;;;;;;;0.87;92.66;102078.19;5056957;28;20078;-76
2022/02/26 01:48:01;;;;;;;16.58;5.50;;;;;;;0.82;92.89;102080.66;5042106;28;20036;-76
2022/02/26 01:50:26;;;;;;;19.05;6.47;;;;;;;0.81;92.71;102074.34;5038762;28;20083;-76
2022/02/26 01:52:52;;;;;;;21.17;5.78;;;;;;;0.78;92.85;102062.91;5052072;28;20028;-76
2022/02/26 01:55:17;;;;;;;21.83;6.07;;;;;;;0.77;93.24;102063.97;5046111;28;20519;-76
2022/02/26 01:57:44;;;;;;;22.95;7.13;;;;;;;0.74;93.20;102061.63;5036530;28;20029;-76
2022/02/26 02:00:10;;;;;;;18.27;6.38;;;;;;;0.75;93.03;102057.81;5060923;28;20040;-75
2022/02/26 02:02:35;;;;;;;23.23;6.25;;;;;;;0.74;93.09;102067.09;5069446;28;20048;-76
2022/02/26 02:05:01;;;;;;;22.63;6.72;;;;;;;0.73;93.86;102059.94;5039904;28;20028;-76
2022/02/26 02:07:27;;;;;;;21.23;5.90;;;;;;;0.70;94.69;102058.41;5062310;28;20047;-76
2022/02/26 02:09:52;;;;;;;25.75;6.60;;;;;;;0.69;95.21;102064.06;5046894;28;20024;-76
2022/02/26 02:12:18;;;;;;;26.40;5.85;;;;;;;0.69;95.46;102058.59;5036255;28;20083;-76
2022/02/26 02:14:45;;;;;;;23.27;6.15;;;;;;;0.69;95.74;102058.59;5031341;28;20508;-76
2022/02/26 02:17:10;;;;;;;24.75;5.68;;;;;;;0.68;95.80;102062.38;5037113;28;20025;-76
2022/02/26 02:19:35;;;;;;;22.20;5.55;;;;;;;0.71;95.66;102051.06;5067647;28;20029;-76
2022/02/26 02:22:04;;;;;;;19.17;5.25;;;;;;;0.69;95.17;102053.13;5046447;28;20086;-76
2022/02/26 02:24:30;;;;;;;18.02;5.75;;;;;;;0.71;95.82;102059.25;5059140;28;20050;-76
2022/02/26 02:26:55;;;;;;;22.85;6.30;;;;;;;0.72;96.09;102041.81;5073396;28;20473;-75
2022/02/26 02:29:20;;;;;;;18.67;6.07;;;;;;;0.70;96.38;102038.41;5053797;28;20020;-76
2022/02/26 02:31:46;;;;;;;24.23;6.25;;;;;;;0.72;95.77;102041.81;5058783;28;20028;-76
2022/02/26 02:34:12;;;;;;;26.20;5.80;;;;;;;0.70;96.27;102042.00;5057466;28;20032;-76
2022/02/26 02:36:43;;;;;;;26.50;6.00;;;;;;;0.68;96.57;102035.88;5049942;28;20029;-75
2022/02/26 02:39:10;;;;;;;22.38;5.60;;;;;;;0.70;96.41;102036.53;5059581;28;20055;-76
2022/02/26 02:41:36;;;;;;;21.30;5.38;;;;;;;0.70;96.62;102031.06;5042541;28;20024;-76
2022/02/26 02:44:01;;;;;;;23.75;5.28;;;;;;;0.70;96.61;102035.66;5055024;28;20036;-76
2022/02/26 02:46:26;;;;;;;24.13;6.07;;;;;;;0.73;97.55;102032.56;5047189;28;20032;-75
2022/02/26 02:48:52;;;;;;;25.83;5.65;;;;;;;0.72;97.44;102028.13;5058712;28;20549;-75
2022/02/26 02:51:18;;;;;;;27.98;6.43;;;;;;;0.74;96.71;102031.53;5059145;28;20039;-76
2022/02/26 02:53:43;;;;;;;27.17;5.82;;;;;;;0.73;98.76;102027.13;5041411;28;20497;-76
2022/02/26 02:56:09;;;;;;;17.35;5.05;;;;;;;0.73;97.88;102025.22;5037800;28;20474;-76
2022/02/26 02:58:34;;;;;;;16.95;4.45;;;;;;;0.71;98.19;102024.56;5046802;28;20040;-76
2022/02/26 03:01:00;;;;;;;27.27;5.80;;;;;;;0.69;98.53;102017.56;5057616;28;20078;-76
2022/02/26 03:03:25;;;;;;;24.48;5.43;;;;;;;0.70;98.60;102022.88;5055341;28;20025;-76
2022/02/26 03:05:51;;;;;;;24.58;5.20;;;;;;;0.72;98.52;102019.94;5056286;28;20029;-76
2022/02/26 03:08:16;;;;;;;28.38;5.88;;;;;;;0.69;98.79;102010.22;5054812;28;20301;-75
2022/02/26 03:10:42;;;;;;;21.10;4.70;;;;;;;0.70;99.00;102005.59;5086414;28;20024;-76
2022/02/26 03:13:07;;;;;;;22.33;4.60;;;;;;;0.70;99.99;102002.84;5036926;28;20033;-76
2022/02/26 03:15:33;;;;;;;21.20;4.53;;;;;;;0.70;99.50;102000.13;5079111;28;20040;-76
2022/02/26 03:17:58;;;;;;;21.17;5.07;;;;;;;0.74;98.59;101996.81;5062428;28;20043;-76
2022/02/26 03:20:24;;;;;;;23.83;4.53;;;;;;;0.73;99.09;101995.13;5051639;28;20033;-76
2022/02/26 03:22:50;;;;;;;22.55;4.78;;;;;;;0.74;100.00;101985.03;5054469;28;20104;-76
2022/02/26 03:25:16;;;;;;;18.63;4.60;;;;;;;0.76;99.78;101982.97;5058339;28;20444;-76
2022/02/26 03:27:42;;;;;;;24.10;5.32;;;;;;;0.77;99.27;101981.91;5053557;28;20505;-76
2022/02/26 03:30:08;;;;;;;21.40;4.03;;;;;;;0.77;99.50;101979.19;5070784;28;20119;-76
2022/02/26 03:32:34;;;;;;;26.80;5.20;;;;;;;0.77;99.09;101970.97;5040017;28;20025;-75
2022/02/26 03:35:00;;;;;;;16.00;4.60;;;;;;;0.81;99.44;101975.03;5068656;28;20371;-76
2022/02/26 03:37:27;;;;;;;24.00;4.82;;;;;;;0.81;99.39;101972.31;5076701;28;20025;-76
2022/02/26 03:39:54;;;;;;;21.23;4.68;;;;;;;0.80;99.20;101957.75;5042677;28;20029;-76
2022/02/26 03:42:19;;;;;;;22.20;4.53;;;;;;;0.83;100.00;101964.72;5062328;28;20032;-76
2022/02/26 03:44:48;;;;;;;20.63;3.53;;;;;;;0.83;100.00;101956.50;5047392;28;20025;-76
2022/02/26 03:47:17;;;;;;;27.20;4.63;;;;;;;0.86;100.00;101957.00;5060763;28;20485;-76
2022/02/26 03:49:44;;;;;;;24.45;4.53;;;;;;;0.87;100.00;101957.84;5087829;28;20025;-75
2022/02/26 03:52:09;;;;;;;27.85;4.55;;;;;;;0.89;99.84;101953.00;5095006;28;20477;-76
2022/02/26 03:54:34;;;;;;;18.98;4.22;;;;;;;0.89;100.00;101951.13;5081694;28;20102;-76
2022/02/26 03:57:00;;;;;;;24.10;4.68;;;;;;;0.89;99.57;101955.72;5063123;28;20055;-76
2022/02/26 03:59:25;;;;;;;23.33;4.40;;;;;;;0.91;100.00;101941.88;5078966;28;20032;-76
2022/02/26 04:01:52;;;;;;;19.00;3.72;;;;;;;0.90;100.00;101946.50;5060409;28;20052;-76
2022/02/26 04:04:17;;;;;;;23.92;3.78;;;;;;;0.91;100.00;101948.19;5075345;28;20556;-76
2022/02/26 04:06:43;;;;;;;20.20;3.88;;;;;;;0.93;100.00;101946.13;5082025;28;20052;-76
2022/02/26 04:09:08;;;;;;;16.50;4.05;;;;;;;0.90;99.15;101943.78;5043418;28;20074;-76
2022/02/26 04:11:34;;;;;;;21.60;4.65;;;;;;;0.91;99.77;101942.72;5023024;28;20039;-76
2022/02/26 04:14:00;;;;;;;20.60;4.97;;;;;;;0.94;99.19;101941.47;5033081;28;20033;-76
2022/02/26 04:16:25;;;;;;;21.40;4.45;;;;;;;0.94;99.55;101942.31;5044768;28;20481;-76
2022/02/26 04:18:51;;;;;;;21.25;4.82;;;;;;;0.95;99.46;101948.63;5054856;28;20091;-76
2022/02/26 04:21:16;;;;;;;20.40;4.35;;;;;;;0.97;99.21;101949.28;5057576;28;20021;-76
2022/02/26 04:23:42;;;;;;;23.30;5.00;;;;;;;0.92;99.00;101941.69;5069695;28;20432;-76
2022/02/26 04:26:07;;;;;;;15.00;3.85;;;;;;;0.95;98.91;101948.63;5050742;28;20028;-76
2022/02/26 04:28:33;;;;;;;17.45;4.10;;;;;;;0.94;98.94;101946.94;5032228;28;20598;-76
2022/02/26 04:30:59;;;;;;;19.38;4.13;;;;;;;0.92;98.58;101944.44;5045005;28;20052;-76
2022/02/26 04:33:27;;;;;;;16.85;4.57;;;;;;;0.89;99.08;101940.19;5046650;28;20044;-76
2022/02/26 04:35:52;;;;;;;17.65;4.10;;;;;;;0.87;99.57;101936.81;5046892;28;20746;-76
2022/02/26 04:38:18;;;;;;;21.85;3.72;;;;;;;0.90;99.14;101935.56;5030196;28;20029;-76
2022/02/26 04:40:43;;;;;;;18.05;3.67;;;;;;;0.90;98.76;101935.56;5057563;28;20040;-76
2022/02/26 04:43:09;;;;;;;21.17;3.72;;;;;;;0.86;99.23;101934.25;5040075;28;20033;-76
2022/02/26 04:45:34;;;;;;;20.80;4.22;;;;;;;0.85;99.60;101935.31;5063555;28;20039;-76
2022/02/26 04:48:01;;;;;;;20.90;4.10;;;;;;;0.84;100.00;101925.41;5055065;28;20032;-76
2022/02/26 04:50:26;;;;;;;17.80;3.58;;;;;;;0.83;100.00;101929.16;5043054;28;20162;-76
2022/02/26 04:52:52;;;;;;;21.75;4.30;;;;;;;0.83;100.00;101927.28;5030904;28;20078;-76
2022/02/26 04:55:17;;;;;;;17.55;3.75;;;;;;;0.85;100.00;101924.34;5021547;28;20036;-76
2022/02/26 04:57:44;;;;;;;22.20;3.92;;;;;;;0.84;100.00;101923.50;5045877;28;20036;-76
2022/02/26 05:00:10;;;;;;;19.63;3.70;;;;;;;0.82;100.00;101922.00;5049073;28;20033;-76
2022/02/26 05:02:36;;;;;;;25.08;4.20;;;;;;;0.79;100.00;101925.97;5049558;28;20543;-76
2022/02/26 05:05:02;;;;;;;31.60;4.32;;;;;;;0.79;100.00;101925.97;5042040;28;20024;-76
2022/02/26 05:07:27;;;;;;;17.70;3.85;;;;;;;0.73;100.00;101931.41;5038498;28;20477;-76
2022/02/26 05:09:53;;;;;;;15.55;4.05;;;;;;;0.68;100.00;101931.97;5040221;28;20028;-76
2022/02/26 05:12:18;;;;;;;13.50;3.78;;;;;;;0.69;100.00;101930.06;5041122;28;20452;-76
2022/02/26 05:14:44;;;;;;;25.67;4.65;;;;;;;0.69;100.00;101938.28;5040854;28;20048;-76
2022/02/26 05:17:09;;;;;;;19.70;3.53;;;;;;;0.67;99.45;101924.81;5025588;28;20037;-76
2022/02/26 05:19:35;;;;;;;19.50;4.18;;;;;;;0.69;99.89;101925.44;5052866;28;20028;-76
2022/02/26 05:22:00;;;;;;;20.75;3.60;;;;;;;0.66;98.94;101923.09;5056149;28;20032;-76
2022/02/26 05:24:26;;;;;;;16.95;3.53;;;;;;;0.63;98.66;101924.34;5029302;28;20033;-76
2022/02/26 05:26:51;;;;;;;21.08;4.10;;;;;;;0.61;99.40;101915.50;5037141;28;20063;-76
2022/02/26 05:29:17;;;;;;;13.80;3.35;;;;;;;0.56;99.53;101912.50;5055793;28;20091;-75
2022/02/26 05:31:42;;;;;;;19.13;3.97;;;;;;;0.53;99.87;101912.88;5050982;28;20036;-76
2022/02/26 05:34:08;;;;;;;21.00;3.60;;;;;;;0.44;100.00;101919.50;5054794;28;20036;-76
2022/02/26 05:36:33;;;;;;;28.98;4.97;;;;;;;0.40;100.00;101918.19;5057751;28;20040;-75
2022/02/26 05:38:59;;;;;;;28.85;5.05;;;;;;;0.33;100.00;101917.25;5056301;28;20036;-76
2022/02/26 05:41:24;;;;;;;23.42;4.28;;;;;;;0.33;100.00;101918.09;5043697;28;20504;-76
2022/02/26 05:43:50;;;;;;;21.90;4.68;;;;;;;0.33;100.00;101920.00;5025792;28;20481;-75
2022/02/26 05:46:15;;;;;;;25.90;4.70;;;;;;;0.31;100.00;101914.72;5051358;28;20043;-76
2022/02/26 05:48:41;;;;;;;23.77;4.53;;;;;;;0.28;100.00;101914.25;5050896;28;20105;-76
2022/02/26 05:51:07;;;;;;;26.25;4.53;;;;;;;0.28;100.00;101914.25;5041532;28;20055;-75
2022/02/26 05:53:32;;;;;;;26.73;3.83;;;;;;;0.27;100.00;101907.09;5037535;28;20028;-76
2022/02/26 05:55:58;;;;;;;15.65;3.50;;;;;;;0.26;100.00;101905.41;5011940;28;20405;-75
2022/02/26 05:58:23;;;;;;;17.90;3.58;;;;;;;0.28;100.00;101903.31;5064420;28;20028;-75
2022/02/26 06:00:49;;;;;;;16.95;3.53;;;;;;;0.31;100.00;101908.44;5049074;28;20056;-76
2022/02/26 06:03:15;;;;;;;20.27;4.45;;;;;;;0.30;100.00;101913.03;4994808;28;20124;-76
2022/02/26 06:05:41;;;;;;;13.80;3.80;;;;;;;0.33;100.00;101907.16;5051427;28;20147;-76
2022/02/26 06:08:06;;;;;;;21.20;4.47;;;;;;;0.29;100.00;101910.50;5041614;28;20049;-76
2022/02/26 06:10:32;;;;;;;29.70;4.43;;;;;;;0.29;100.00;101916.81;5058800;28;20496;-76
2022/02/26 06:12:58;;;;;;;23.08;3.95;;;;;;;0.25;100.00;101915.47;5048859;28;20036;-76
2022/02/26 06:15:24;;;;;;;26.63;4.07;;;;;;;0.25;100.00;101917.38;5055524;28;20074;-76
2022/02/26 06:17:49;;;;;;;21.35;4.03;;;;;;;0.22;100.00;101908.53;5057533;28;20031;-75
2022/02/26 06:20:15;;;;;;;20.63;4.38;;;;;;;0.25;100.00;101918.22;5041418;28;20028;-76
2022/02/26 06:22:40;;;;;;;15.48;3.75;;;;;;;0.26;100.00;101917.19;5040122;28;20040;-76
2022/02/26 06:25:06;;;;;;;26.20;4.70;;;;;;;0.24;100.00;101918.41;5045973;28;20024;-76
2022/02/26 06:27:38;;;;;;;25.25;4.18;;;;;;;0.24;100.00;101921.16;5045055;28;20465;-76
2022/02/26 06:30:05;;;;;;;20.40;4.25;;;;;;;0.22;100.00;101918.59;5055839;28;20031;-76
2022/02/26 06:32:31;;;;;;;20.73;4.15;;;;;;;0.24;100.00;101918.41;5045049;28;20028;-76
2022/02/26 06:34:56;;;;;;;16.70;4.32;;;;;;;0.23;100.00;101928.50;5055179;28;20035;-76
2022/02/26 06:37:22;;;;;;;24.17;3.97;;;;;;;0.21;100.00;101922.38;5045435;28;20465;-76
2022/02/26 06:39:47;;;;;;;21.70;4.40;;;;;;;0.22;100.00;101926.78;5055682;28;20028;-76
2022/02/26 06:42:13;;;;;;;18.52;3.60;;;;;;;0.23;100.00;101928.50;5056612;28;20033;-75
2022/02/26 06:44:38;;;;;;;15.90;3.97;;;;;;;0.26;100.00;101932.75;5057485;28;20028;-76
2022/02/26 06:47:04;;;;;;;21.23;4.10;;;;;;;0.24;100.00;101935.66;5045922;28;20040;-76
2022/02/26 06:49:30;;;;;;;19.88;4.70;;;;;;;0.25;100.00;101931.03;5056317;28;20554;-76
2022/02/26 06:51:55;;;;;;;26.10;3.85;;;;;;;0.26;100.00;101933.59;5031264;28;20021;-76
2022/02/26 06:54:22;;;;;;;18.20;3.92;;;;;;;0.26;100.00;101935.47;5058185;28;20032;-75
2022/02/26 06:56:48;;;;;;;20.20;4.07;;;;;;;0.25;100.00;101937.34;5025625;28;20036;-75
2022/02/26 06:59:13;;;;;;;20.98;4.20;;;;;;;0.28;100.00;101936.09;5059061;28;20091;-76
2022/02/26 07:01:40;;;;;;;19.80;3.83;;;;;;;0.27;100.00;101937.16;5053061;28;20493;-76
2022/02/26 07:04:06;;;;;;;19.88;4.03;;;;;;;0.26;100.00;101943.69;5057923;28;20032;-76
2022/02/26 07:06:31;;;;;;;18.15;3.70;;;;;;;0.28;100.00;101936.97;5056845;28;20036;-76
2022/02/26 07:08:57;;;;;;;19.75;4.55;;;;;;;0.27;100.00;101946.19;5057430;28;20040;-76
2022/02/26 07:11:22;;;;;;;21.00;4.53;;;;;;;0.29;100.00;101940.56;5028224;28;20025;-76
2022/02/26 07:13:48;;;;;;;23.02;4.05;;;;;;;0.30;100.00;101940.34;5050270;28;20025;-76
2022/02/26 07:16:13;;;;;;;22.70;4.78;;;;;;;0.32;100.00;101940.16;5066281;28;20046;-76
2022/02/26 07:18:39;;;;;;;21.05;4.85;;;;;;;0.35;100.00;101942.53;5059383;28;20039;-76
2022/02/26 07:21:04;;;;;;;21.02;4.82;;;;;;;0.37;100.00;101943.19;5031175;28;20032;-76
2022/02/26 07:23:30;;;;;;;24.13;4.75;;;;;;;0.44;100.00;101938.63;5042175;28;20501;-76
2022/02/26 07:25:55;;;;;;;21.10;3.95;;;;;;;0.45;100.00;101937.59;5043172;28;20058;-76
2022/02/26 07:28:21;;;;;;;25.48;4.68;;;;;;;0.51;100.00;101945.03;5068298;28;20100;-76
2022/02/26 07:30:48;;;;;;;17.63;4.07;;;;;;;0.58;100.00;101940.47;5057495;28;20035;-76
2022/02/26 07:33:14;;;;;;;12.40;3.17;;;;;;;0.63;100.00;101927.06;5042930;28;20032;-76
2022/02/26 07:35:39;;;;;;;18.95;4.00;;;;;;;0.71;100.00;101936.22;5030926;28;20159;-76
2022/02/26 07:38:05;;;;;;;13.48;3.97;;;;;;;0.79;100.00;101931.44;5076567;28;20024;-76
2022/02/26 07:40:30;;;;;;;13.30;2.83;;;;;;;0.88;100.00;101932.16;5022141;28;20051;-76
2022/02/26 07:42:56;;;;;;;12.45;3.53;;;;;;;0.97;100.00;101930.16;5018330;28;20044;-76
2022/02/26 07:45:21;;;;;;;14.50;3.40;;;;;;;1.05;100.00;101928.13;5061043;28;20028;-76
2022/02/26 07:47:48;;;;;;;18.83;3.72;;;;;;;1.16;100.00;101928.66;5037418;28;20024;-76
2022/02/26 07:50:13;;;;;;;12.85;3.50;;;;;;;1.27;100.00;101922.63;5037691;28;20035;-76
2022/02/26 07:52:39;;;;;;;18.42;3.33;;;;;;;1.35;100.00;101919.75;5035128;28;20029;-76
2022/02/26 07:55:05;;;;;;;27.35;3.70;;;;;;;1.45;100.00;101923.00;5033792;28;20108;-76
2022/02/26 07:57:31;;;;;;;17.20;2.90;;;;;;;1.55;100.00;101922.63;5037282;28;20029;-76
2022/02/26 07:59:56;;;;;;;17.08;3.80;;;;;;;1.66;100.00;101915.75;5036456;28;20032;-76
2022/02/26 08:02:22;;;;;;;28.05;4.35;;;;;;;1.76;100.00;101913.50;5038846;28;20483;-76
2022/02/26 08:04:47;;;;;;;18.00;3.47;;;;;;;1.88;100.00;101920.09;5023010;28;20390;-76
2022/02/26 08:07:13;;;;;;;24.13;3.40;;;;;;;1.98;100.00;101912.38;5041993;28;20404;-76
2022/02/26 08:09:39;;;;;;;17.85;3.92;;;;;;;2.10;100.00;101912.63;5015145;28;20737;-76
2022/02/26 08:12:05;;;;;;;19.17;3.30;;;;;;;2.28;100.00;101906.59;5038261;28;20040;-76
2022/02/26 08:14:32;;;;;;;19.83;3.80;;;;;;;2.43;100.00;101912.78;5049923;28;20032;-76
2022/02/26 08:16:58;;;;;;;26.98;3.92;;;;;;;2.59;100.00;101902.47;5035551;28;20386;-76
2022/02/26 08:19:23;;;;;;;17.42;3.63;;;;;;;2.73;100.00;101895.09;5037376;28;20040;-76
2022/02/26 08:21:49;;;;;;;19.23;3.50;;;;;;;2.86;100.00;101903.38;5054974;28;20529;-76
2022/02/26 08:24:14;;;;;;;18.92;3.95;;;;;;;3.00;100.00;101904.22;5040697;28;20091;-77
2022/02/26 08:26:40;;;;;;;16.40;3.72;;;;;;;3.17;100.00;101897.25;5033819;28;20029;-76
2022/02/26 08:29:06;;;;;;;15.88;3.35;;;;;;;3.31;100.00;101896.19;5013579;28;20031;-76
2022/02/26 08:31:31;;;;;;;16.70;3.67;;;;;;;3.44;99.21;101894.53;5041141;28;20029;-76
2022/02/26 08:33:57;;;;;;;22.08;4.40;;;;;;;3.52;99.03;101891.56;5048129;28;20040;-76
2022/02/26 08:36:22;;;;;;;17.48;3.50;;;;;;;3.66;98.23;101889.63;5031336;28;20495;-76
2022/02/26 08:38:49;;;;;;;20.70;3.53;;;;;;;3.76;98.33;101893.63;5049464;28;20032;-76
2022/02/26 08:41:15;;;;;;;16.13;2.95;;;;;;;3.92;97.13;101891.47;5065282;28;20031;-76
2022/02/26 08:43:40;;;;;;;20.65;3.90;;;;;;;4.05;95.96;101887.84;5074014;28;20455;-76
2022/02/26 08:46:06;;;;;;;14.55;3.30;;;;;;;4.22;95.45;101886.28;5048813;28;20047;-77
2022/02/26 08:48:31;;;;;;;18.38;3.58;;;;;;;4.31;95.27;101886.88;5043066;28;20412;-76
2022/02/26 08:50:57;;;;;;;11.38;3.25;;;;;;;4.44;95.06;101884.06;5022973;28;20036;-77
2022/02/26 08:53:22;;;;;;;16.05;3.13;;;;;;;4.60;94.00;101872.53;5038666;28;20121;-77
2022/02/26 08:55:48;;;;;;;19.02;3.40;;;;;;;4.76;93.03;101882.16;5058940;28;20392;-76
2022/02/26 08:58:13;;;;;;;14.27;3.38;;;;;;;4.89;92.35;101879.31;5055977;28;20036;-77
2022/02/26 09:00:38;;;;;;;16.83;3.25;;;;;;;5.11;90.16;101874.28;5062480;28;20044;-77
2022/02/26 09:03:04;;;;;;;16.50;3.70;;;;;;;5.23;90.12;101868.03;5053705;28;20112;-77
2022/02/26 09:05:29;;;;;;;21.98;3.33;;;;;;;5.32;89.55;101874.94;5058238;28;20028;-77
2022/02/26 09:07:55;;;;;;;16.42;3.05;;;;;;;5.38;89.30;101874.06;5094460;28;20059;-77
2022/02/26 09:10:20;;;;;;;16.88;3.10;;;;;;;5.41;90.54;101879.13;5063435;28;20074;-74
2022/02/26 09:12:46;;;;;;;11.65;2.80;;;;;;;5.57;89.02;101878.53;5087529;28;20384;-74
2022/02/26 09:15:11;;;;;;;15.93;3.60;;;;;;;5.70;88.14;101879.47;5070878;28;20485;-73
2022/02/26 09:17:37;;;;;;;19.65;3.63;;;;;;;5.88;86.54;101875.84;5094867;28;20044;-73
2022/02/26 09:20:03;;;;;;;16.48;4.03;;;;;;;5.94;86.76;101872.22;5083032;28;20031;-75
2022/02/26 09:22:28;;;;;;;21.13;3.80;;;;;;;6.01;87.26;101865.53;5093959;28;20477;-75
2022/02/26 09:24:54;;;;;;;18.42;3.20;;;;;;;6.16;85.87;101872.59;5053637;28;20028;-73
2022/02/26 09:27:19;;;;;;;17.52;3.45;;;;;;;6.27;85.30;101871.81;5099604;28;20373;-73
2022/02/26 09:29:45;;;;;;;21.05;3.55;;;;;;;6.37;85.36;101871.25;5098771;28;20035;-73
2022/02/26 09:32:11;;;;;;;14.27;3.10;;;;;;;6.55;83.00;101871.22;5095885;28;20378;-73
2022/02/26 09:34:36;;;;;;;19.40;3.55;;;;;;;6.60;83.83;101859.47;5106381;28;20028;-74
2022/02/26 09:37:02;;;;;;;17.83;3.55;;;;;;;6.70;82.73;101857.00;5096614;28;20039;-74
2022/02/26 09:39:27;;;;;;;13.13;3.55;;;;;;;6.81;82.00;101855.34;5099242;28;20032;-73
2022/02/26 09:41:53;;;;;;;13.15;3.45;;;;;;;6.84;82.83;101852.94;5061775;28;20037;-73
2022/02/26 09:44:20;;;;;;;13.70;3.42;;;;;;;6.89;82.90;101850.31;5069395;28;20032;-74
2022/02/26 09:46:46;;;;;;;18.70;4.22;;;;;;;6.91;82.86;101845.41;5103770;27;20059;-73
2022/02/26 09:49:11;;;;;;;18.77;5.07;;;;;;;7.07;80.53;101845.78;5077925;28;20024;-74
2022/02/26 09:51:41;;;;;;;19.33;5.25;;;;;;;7.11;80.95;101844.22;5098671;28;20032;-77
2022/02/26 09:54:07;;;;;;;16.23;4.82;;;;;;;7.14;81.86;101830.78;5060442;28;20400;-76
2022/02/26 09:56:32;;;;;;;17.83;5.25;;;;;;;7.19;81.48;101832.84;5062161;28;20035;-76
2022/02/26 09:58:58;;;;;;;17.77;6.45;;;;;;;7.26;80.65;101830.78;5077801;28;20024;-77
2022/02/26 10:01:23;;;;;;;18.15;5.43;;;;;;;7.28;80.09;101816.75;5064116;28;20028;-77
2022/02/26 10:03:49;;;;;;;19.05;6.05;;;;;;;7.35;79.89;101812.78;5080522;28;20024;-73
2022/02/26 10:06:16;;;;;;;20.33;5.57;;;;;;;7.41;80.63;101804.56;5095658;28;20024;-74
2022/02/26 10:08:52;;;;;;;14.15;4.70;;;;;;;7.50;79.34;101803.16;5079975;28;20044;-75
2022/02/26 10:11:32;;;;;;;13.05;3.95;;;;;;;7.64;77.43;101803.72;5079518;28;20534;-76
2022/02/26 10:14:02;;;;;;;17.77;4.82;;;;;;;7.66;79.20;101807.94;5078118;28;20027;-74
2022/02/26 10:16:52;;;;;;;12.75;3.35;;;;;;;7.78;77.04;101791.31;5080110;28;20492;-74
2022/02/26 10:19:21;;;;;;;12.18;3.28;;;;;;;7.86;76.59;101801.16;5099408;28;20035;-73
2022/02/26 10:21:46;;;;;;;20.60;3.75;;;;;;;7.95;76.28;101791.38;5067841;28;20492;-74
2022/02/26 10:24:12;;;;;;;15.48;3.58;;;;;;;8.03;76.25;101797.38;5081264;28;20105;-73
2022/02/26 10:26:38;;;;;;;11.18;3.13;;;;;;;8.10;75.66;101785.31;5099321;28;20043;-75
2022/02/26 10:29:10;;;;;;;13.65;3.65;;;;;;;8.14;75.95;101781.81;5103986;28;20028;-75
2022/02/26 10:31:49;;;;;;;13.85;3.28;;;;;;;8.24;75.00;101782.00;5081787;28;20126;-76
2022/02/26 10:34:34;;;;;;;14.95;3.20;;;;;;;8.28;74.82;101772.13;5096145;28;20024;-75
2022/02/26 10:37:04;;;;;;;17.80;4.07;;;;;;;8.34;73.74;101770.28;5097061;28;20043;-75
2022/02/26 10:39:34;;;;;;;13.38;3.38;;;;;;;8.41;73.54;101775.69;5081705;28;20502;-74
2022/02/26 10:41:59;;;;;;;13.75;3.13;;;;;;;8.45;73.92;101768.59;5098325;28;20036;-73
2022/02/26 10:44:25;;;;;;;16.80;3.20;;;;;;;8.46;74.56;101773.84;5097290;28;20028;-73
2022/02/26 10:46:51;;;;;;;12.35;2.80;;;;;;;8.57;72.75;101769.34;5099260;28;20040;-74
2022/02/26 10:49:17;;;;;;;12.32;3.42;;;;;;;8.59;72.39;101766.34;5084734;28;20036;-77
2022/02/26 10:51:43;;;;;;;13.95;3.20;;;;;;;8.60;73.00;101757.75;5072896;28;20063;-74
2022/02/26 10:54:28;;;;;;;12.95;3.17;;;;;;;8.66;72.51;101755.91;5094354;28;20054;-81
2022/02/26 10:56:59;;;;;;;16.30;3.00;;;;;;;8.75;71.83;101750.81;5033351;28;20032;-76
2022/02/26 10:59:27;;;;;;;12.13;3.63;;;;;;;8.75;70.80;101764.66;5062650;28;20078;-75
2022/02/26 11:02:25;;;;;;;13.02;3.63;;;;;;;8.77;70.83;101751.41;5080058;28;20080;-73
2022/02/26 11:04:52;;;;;;;15.75;4.15;;;;;;;8.91;70.22;101753.59;5084555;28;20491;-73
2022/02/26 11:07:17;;;;;;;10.07;3.22;;;;;;;8.98;69.66;101747.88;5097791;28;20051;-74
2022/02/26 11:09:45;;;;;;;9.65;2.92;;;;;;;9.14;69.41;101746.19;5078947;28;20057;-72
2022/02/26 11:12:16;;;;;;;17.90;3.45;;;;;;;9.11;70.54;101741.97;5078252;28;20099;-73
2022/02/26 11:14:45;;;;;;;18.80;3.67;;;;;;;9.17;71.52;101746.50;5098156;28;20038;-73
2022/02/26 11:17:11;;;;;;;9.57;3.00;;;;;;;9.31;68.43;101737.84;5077804;28;20035;-74